Fort St John Airport
CYXJ : now visible

Airfield :











YOU CAN JOIN US ON...

 
LOGIN :

Register | Disclaimer

   EN    FR    IT 

 









Legend :    VFR   Marginal VFR   IFR   Intensive IFR   Very Intensive IFR
Visi :
Ceiling :
>= 8 km
>= 3000ft
5 to 8 km
1000 to 3000 ft
1500m to 5 km
500 to 1000 ft
800 to 1500m
200 to 500 ft
< 800m
< 200 ft
Symbols :   Thunderstorms  Fog  Heavy snow  Heavy precipitations  Wind > 20 kt






- Airport Elevation : 2280 ft
- IATA code : YXJ


CYXJ - Fort St John

CURRENT METAR :
  • 141300Z 04002KT 3/4SM R30/4000VP6000FT/U BR VV007 M07/M08 A2998 RMK FG8 SLP198

EXPIRED METARs :
  • 141231Z 01003KT 330V030 1/2SM R30/3000V5000FT/U FZFG VV007 M07/M08 A2999 RMK FG8 PRESFR SLP201
  • 141216Z VRB03KT 1/4SM R30/2200FT/N FZFG VV006 M07/M08 A3001 RMK FG8 SLP208
  • 141123Z 01005KT 1/4SM R30/2800FT/N FZFG VV006 M07/M08 A3001 RMK FG8 SLP209
  • 141107Z 01004KT 1SM R30/3000FT/D BR OVC006 M07/M08 A3002 RMK SC8 SLP212

TAF TAF CYXJ
Valid from the 14 at 13:00 until the 15 at 01:00 UTC


141241Z 1413/1501 VRB03KT 1/4SM FZFG OVC002
TEMPO 1413/1415 4SM BR OVC008
FM141500 14010KT 6SM -SN BR BKN010 OVC060
TEMPO 1415/1420 2SM -SN BR OVC006
FM142000 14008KT P6SM SCT012 OVC060
TEMPO 1420/1501 OVC012 RMK NXT FCST BY 141900Z



MET'MAP, your aeronautical weather chart ! - Copyright ORBIFLY December 2007 - Disclaimer

ORBIFLY MET'MAP TEAM :

Programming & Development : Alexandra Zaïnal
Concept & Development : Baudouin d'Aumeries
Co-Development & Prog : Marc-Olivier Méhu
Technical & hardware support : Manuel Goepfert

Contact : metmap@orbifly.com




SOURCES & CREDITS :

   NOAA       Earth
Advisory